createdAt,value
2023-02-24T00:01:59.759Z,2.45
2023-02-24T00:04:28.672Z,0.20
2023-02-24T00:06:56.217Z,0.32
2023-02-24T00:09:27.365Z,0.20
2023-02-24T00:11:57.941Z,0.20
2023-02-24T00:14:29.938Z,2.17
2023-02-24T00:16:58.481Z,0.38
2023-02-24T00:19:28.976Z,0.25
2023-02-24T00:21:56.457Z,0.20
2023-02-24T00:24:25.256Z,0.80
2023-02-24T00:26:56.035Z,0.32
2023-02-24T00:29:25.011Z,0.20
2023-02-24T00:31:59.922Z,0.57
2023-02-24T00:34:28.678Z,0.20
2023-02-24T00:36:56.410Z,0.20
2023-02-24T00:39:30.598Z,0.20
2023-02-24T00:42:04.405Z,0.20
2023-02-24T00:44:33.706Z,0.30
2023-02-24T00:47:02.427Z,0.40
2023-02-24T00:49:30.303Z,0.57
2023-02-24T00:51:57.733Z,0.28
2023-02-24T00:54:28.239Z,0.30
2023-02-24T00:56:56.984Z,0.50
2023-02-24T00:59:25.113Z,0.13
2023-02-24T01:01:56.659Z,0.13
2023-02-24T01:04:27.131Z,0.20
2023-02-24T01:06:59.930Z,0.28
2023-02-24T01:09:30.675Z,0.20
2023-02-24T01:12:16.268Z,0.20
2023-02-24T01:14:45.409Z,0.25
2023-02-24T01:17:13.022Z,0.40
2023-02-24T01:19:40.706Z,0.43
2023-02-24T01:22:10.857Z,0.43
2023-02-24T01:24:41.225Z,0.75
2023-02-24T01:27:09.733Z,0.20
2023-02-24T01:29:39.500Z,0.20
2023-02-24T01:32:07.718Z,1.05
2023-02-24T01:34:35.353Z,0.80
2023-02-24T01:37:03.158Z,0.50
2023-02-24T01:39:30.730Z,1.15
2023-02-24T01:42:01.166Z,0.20
2023-02-24T01:45:03.771Z,1.67
2023-02-24T01:47:31.321Z,0.17
2023-02-24T01:49:58.869Z,3.88
2023-02-24T01:52:30.295Z,0.20
2023-02-24T01:55:02.769Z,0.10
2023-02-24T01:57:36.817Z,1.75
2023-02-24T02:00:21.206Z,3.45
2023-02-24T02:02:52.747Z,1.05
2023-02-24T02:05:21.083Z,1.15
2023-02-24T02:07:50.114Z,2.90
2023-02-24T02:10:18.399Z,0.20
2023-02-24T02:12:47.349Z,0.50
2023-02-24T02:15:20.153Z,0.20
2023-02-24T02:17:56.575Z,0.40
2023-02-24T02:20:57.041Z,3.10
2023-02-24T02:23:46.807Z,0.50
2023-02-24T02:30:20.922Z,2.35
2023-02-24T02:33:01.680Z,1.67
2023-02-24T02:35:36.775Z,0.77
2023-02-24T02:38:14.968Z,0.63
2023-02-24T02:40:49.752Z,0.20
2023-02-24T02:43:24.638Z,0.20
2023-02-24T02:45:58.902Z,0.25
2023-02-24T02:48:33.910Z,0.57
2023-02-24T02:51:07.030Z,0.55
2023-02-24T02:53:39.685Z,1.48
2023-02-24T02:56:12.446Z,1.75
2023-02-24T02:58:45.990Z,0.65
2023-02-24T03:01:18.471Z,0.40
2023-02-24T03:03:50.295Z,1.30
2023-02-24T03:06:26.001Z,0.30
2023-02-24T03:08:58.988Z,0.55
2023-02-24T03:13:56.864Z,0.57
2023-02-24T03:16:26.457Z,1.45
2023-02-24T03:18:59.475Z,1.52
2023-02-24T03:26:33.022Z,1.55
2023-02-24T03:29:08.188Z,2.22
2023-02-24T03:31:45.876Z,1.60
2023-02-24T03:34:19.703Z,2.90
2023-02-24T03:36:49.478Z,0.88
2023-02-24T03:39:18.599Z,0.30
2023-02-24T03:41:54.177Z,0.20
2023-02-24T03:44:21.581Z,0.20
2023-02-24T03:46:49.306Z,0.20
2023-02-24T03:49:17.406Z,0.98
2023-02-24T03:51:56.837Z,1.65
2023-02-24T03:54:50.111Z,1.75
2023-02-24T03:57:30.014Z,0.52
2023-02-24T04:00:19.865Z,1.05
2023-02-24T04:02:51.589Z,1.20
2023-02-24T04:05:24.363Z,0.88
2023-02-24T04:08:00.873Z,1.17
2023-02-24T04:10:35.101Z,0.40
2023-02-24T04:13:08.147Z,1.58
2023-02-24T04:18:14.509Z,1.00
2023-02-24T04:20:43.810Z,0.30
2023-02-24T04:23:15.736Z,2.30
2023-02-24T04:25:47.563Z,0.95
2023-02-24T04:28:18.799Z,1.30
2023-02-24T04:30:50.787Z,0.82
2023-02-24T04:33:20.327Z,3.30
2023-02-24T04:35:50.387Z,2.00
2023-02-24T04:38:18.004Z,0.95
2023-02-24T04:40:46.774Z,1.08
2023-02-24T04:43:14.160Z,1.58
2023-02-24T04:45:44.218Z,0.30
2023-02-24T04:48:13.449Z,0.90
2023-02-24T04:50:43.210Z,1.10
2023-02-24T04:53:14.536Z,0.65
2023-02-24T04:55:43.569Z,1.95
2023-02-24T04:58:19.008Z,1.15
2023-02-24T05:00:48.796Z,1.45
2023-02-24T05:03:17.784Z,0.30
2023-02-24T05:05:51.780Z,0.63
2023-02-24T05:08:20.297Z,0.30
2023-02-24T05:10:48.384Z,1.27
2023-02-24T05:13:19.270Z,0.55
2023-02-24T05:15:49.459Z,0.28
2023-02-24T05:18:18.943Z,0.65
2023-02-24T05:21:06.527Z,1.10
2023-02-24T05:23:35.729Z,0.28
2023-02-24T05:26:08.519Z,0.22
2023-02-24T05:28:38.860Z,0.30
2023-02-24T05:31:08.626Z,1.85
2023-02-24T05:33:37.577Z,0.30
2023-02-24T05:36:09.629Z,0.30
2023-02-24T05:38:39.924Z,0.30
2023-02-24T05:41:08.275Z,0.20
2023-02-24T05:43:39.262Z,3.10
2023-02-24T05:46:07.265Z,0.82
2023-02-24T05:48:35.060Z,2.25
2023-02-24T05:51:05.240Z,0.22
2023-02-24T05:53:33.446Z,0.30
2023-02-24T05:56:01.835Z,0.20
2023-02-24T05:58:30.005Z,0.40
2023-02-24T06:01:05.723Z,0.30
2023-02-24T06:03:35.515Z,0.28
2023-02-24T06:06:05.438Z,0.30
2023-02-24T06:08:41.977Z,0.30
2023-02-24T06:11:10.486Z,0.30
2023-02-24T06:13:38.497Z,0.30
2023-02-24T06:16:08.433Z,0.30
2023-02-24T06:18:35.928Z,0.20
2023-02-24T06:21:04.272Z,0.35
2023-02-24T06:23:33.751Z,0.52
2023-02-24T06:26:04.625Z,0.30
2023-02-24T06:28:34.424Z,0.50
2023-02-24T06:31:04.683Z,0.93
2023-02-24T06:33:33.736Z,2.05
2023-02-24T06:36:01.149Z,0.20
2023-02-24T06:38:28.790Z,0.45
2023-02-24T06:40:58.508Z,2.08
2023-02-24T06:43:25.939Z,0.40
2023-02-24T06:45:53.413Z,0.40
2023-02-24T06:48:22.886Z,0.30
2023-02-24T06:50:51.706Z,1.70
2023-02-24T06:53:19.129Z,0.35
2023-02-24T06:55:48.767Z,1.48
2023-02-24T06:58:18.287Z,0.40
2023-02-24T07:00:56.979Z,0.55
2023-02-24T07:03:39.059Z,0.47
2023-02-24T07:06:20.429Z,1.33
2023-02-24T07:08:48.747Z,1.25
2023-02-24T07:11:19.097Z,0.50
2023-02-24T07:13:47.616Z,0.80
2023-02-24T07:16:16.067Z,0.60
2023-02-24T07:18:48.177Z,0.63
2023-02-24T07:21:23.391Z,0.80
2023-02-24T07:23:58.561Z,0.40
2023-02-24T07:26:30.229Z,0.68
2023-02-24T07:28:57.976Z,0.40
2023-02-24T07:31:26.086Z,0.80
2023-02-24T07:33:55.555Z,2.80
2023-02-24T07:36:29.976Z,0.35
2023-02-24T07:39:01.496Z,1.73
2023-02-24T07:41:31.310Z,1.25
2023-02-24T07:43:59.879Z,0.65
2023-02-24T07:46:29.340Z,0.60
2023-02-24T07:48:59.155Z,1.42
2023-02-24T07:51:29.391Z,0.30
2023-02-24T07:53:59.242Z,0.30
2023-02-24T07:56:28.278Z,1.17
2023-02-24T07:59:00.183Z,0.68
2023-02-24T08:01:29.053Z,0.63
2023-02-24T08:03:58.419Z,0.47
2023-02-24T08:06:37.730Z,1.83
2023-02-24T08:09:16.658Z,0.30
2023-02-24T08:11:45.982Z,1.48
2023-02-24T08:14:15.588Z,0.70
2023-02-24T08:16:43.543Z,0.82
2023-02-24T08:19:13.207Z,1.17
2023-02-24T08:21:47.230Z,0.63
2023-02-24T08:24:19.220Z,0.30
2023-02-24T08:26:53.688Z,0.40
2023-02-24T08:29:21.093Z,0.57
2023-02-24T08:31:50.147Z,2.20
2023-02-24T08:34:17.622Z,0.30
2023-02-24T08:36:48.503Z,0.57
2023-02-24T08:39:16.835Z,2.53
2023-02-24T08:41:51.274Z,1.23
2023-02-24T08:44:21.648Z,1.13
2023-02-24T08:46:50.146Z,0.95
2023-02-24T08:49:18.984Z,0.70
2023-02-24T08:51:52.765Z,1.05
2023-02-24T08:54:27.005Z,0.98
2023-02-24T08:56:56.683Z,0.68
2023-02-24T08:59:38.860Z,1.42
2023-02-24T09:02:29.036Z,1.58
2023-02-24T09:04:58.019Z,1.70
2023-02-24T09:07:28.597Z,0.50
2023-02-24T09:09:57.163Z,1.63
2023-02-24T09:12:28.760Z,2.72
2023-02-24T09:14:58.504Z,1.50
2023-02-24T09:17:50.879Z,0.30
2023-02-24T09:20:56.188Z,3.17
2023-02-24T09:23:30.666Z,1.65
2023-02-24T09:25:58.277Z,1.23
2023-02-24T09:28:27.300Z,1.58
2023-02-24T09:30:56.605Z,1.40
2023-02-24T09:33:27.532Z,1.10
2023-02-24T09:36:09.451Z,2.17
2023-02-24T09:38:56.597Z,1.98
2023-02-24T09:41:33.044Z,0.57
2023-02-24T09:44:07.215Z,3.13
2023-02-24T09:46:42.213Z,1.25
2023-02-24T09:49:18.958Z,1.45
2023-02-24T09:51:53.314Z,2.03
2023-02-24T09:54:24.652Z,1.35
2023-02-24T09:57:08.212Z,2.63
2023-02-24T10:00:00.799Z,2.35
2023-02-24T10:02:44.721Z,0.90
2023-02-24T10:05:27.301Z,2.33
2023-02-24T10:07:56.992Z,3.38
2023-02-24T10:10:28.859Z,1.90
2023-02-24T10:13:02.641Z,3.55
2023-02-24T10:15:58.896Z,2.72
2023-02-24T10:18:31.014Z,3.70
2023-02-24T10:21:03.736Z,3.23
2023-02-24T10:23:45.034Z,2.13
2023-02-24T10:26:31.592Z,3.33
2023-02-24T10:29:08.939Z,3.67
2023-02-24T10:31:47.829Z,3.78
2023-02-24T10:34:20.268Z,2.25
2023-02-24T10:36:50.304Z,4.35
2023-02-24T10:39:25.243Z,2.88
2023-02-24T10:41:57.917Z,3.67
2023-02-24T10:44:35.812Z,2.47
2023-02-24T10:47:14.150Z,5.07
2023-02-24T10:49:56.629Z,3.00
2023-02-24T10:53:10.875Z,3.28
2023-02-24T10:55:54.346Z,5.85
2023-02-24T10:58:38.112Z,2.40
2023-02-24T11:01:13.506Z,3.53
2023-02-24T11:03:42.731Z,3.33
2023-02-24T11:06:42.108Z,5.35
2023-02-24T11:09:32.140Z,3.60
2023-02-24T11:12:22.047Z,3.42
2023-02-24T11:15:12.603Z,2.80
2023-02-24T11:17:48.881Z,5.45
2023-02-24T11:20:24.757Z,5.63
2023-02-24T11:22:57.534Z,4.22
2023-02-24T11:25:27.670Z,5.28
2023-02-24T11:27:56.552Z,5.03
2023-02-24T11:30:36.662Z,5.43
2023-02-24T11:33:17.676Z,5.38
2023-02-24T11:35:56.608Z,5.68
2023-02-24T11:38:34.307Z,4.07
2023-02-24T11:41:08.321Z,3.63
2023-02-24T11:43:39.722Z,4.32
2023-02-24T11:46:15.770Z,3.90
2023-02-24T11:48:47.916Z,5.20
2023-02-24T11:51:19.992Z,4.65
2023-02-24T11:53:52.028Z,2.85
2023-02-24T11:56:27.372Z,5.18
2023-02-24T11:59:01.128Z,4.80
2023-02-24T12:01:34.630Z,4.72
2023-02-24T12:04:11.378Z,4.43
2023-02-24T12:06:44.889Z,4.10
2023-02-24T12:09:15.838Z,3.85
2023-02-24T12:11:52.281Z,2.20
2023-02-24T12:14:26.718Z,2.15
2023-02-24T12:17:03.442Z,4.22
2023-02-24T12:19:38.055Z,2.22
2023-02-24T12:22:13.690Z,1.92
2023-02-24T12:24:47.261Z,2.50
2023-02-24T12:27:19.300Z,2.97
2023-02-24T12:30:06.608Z,2.60
2023-02-24T12:32:52.685Z,4.63
2023-02-24T12:35:28.048Z,4.20
2023-02-24T12:38:04.435Z,3.80
2023-02-24T12:40:42.492Z,3.65
2023-02-24T12:43:25.435Z,3.90
2023-02-24T12:46:02.179Z,3.85
2023-02-24T12:48:49.969Z,3.40
2023-02-24T12:51:25.149Z,3.80
2023-02-24T12:54:00.405Z,1.98
2023-02-24T12:56:38.575Z,3.28
2023-02-24T12:59:10.166Z,3.60
2023-02-24T13:01:46.077Z,3.95
2023-02-24T13:04:30.037Z,3.35
2023-02-24T13:07:11.447Z,2.33
2023-02-24T13:09:48.376Z,2.28
2023-02-24T13:12:22.070Z,3.47
2023-02-24T13:14:51.310Z,2.47
2023-02-24T13:17:21.845Z,3.20
2023-02-24T13:19:52.899Z,3.22
2023-02-24T13:22:25.081Z,1.20
2023-02-24T13:25:19.614Z,3.83
2023-02-24T13:27:56.824Z,4.53
2023-02-24T13:30:27.484Z,1.50
2023-02-24T13:33:04.826Z,4.43
2023-02-24T13:35:37.297Z,3.10
2023-02-24T13:38:26.903Z,5.70
2023-02-24T13:40:54.879Z,4.38
2023-02-24T13:43:29.073Z,2.47
2023-02-24T13:45:59.786Z,1.52
2023-02-24T13:49:03.696Z,2.53
2023-02-24T13:52:00.111Z,2.13
2023-02-24T13:54:47.058Z,5.35
2023-02-24T13:57:40.400Z,2.47
2023-02-24T14:00:15.554Z,3.70
2023-02-24T14:02:45.037Z,2.75
2023-02-24T14:05:18.591Z,3.00
2023-02-24T14:07:49.905Z,3.67
2023-02-24T14:10:20.458Z,3.20
2023-02-24T14:12:50.558Z,4.10
2023-02-24T14:15:24.180Z,3.55
2023-02-24T14:17:57.432Z,2.10
2023-02-24T14:20:26.849Z,4.93
2023-02-24T14:22:58.911Z,5.85
2023-02-24T14:25:28.594Z,4.47
2023-02-24T14:27:57.688Z,4.82
2023-02-24T14:30:28.147Z,4.47
2023-02-24T14:32:56.253Z,1.73
2023-02-24T14:35:33.018Z,5.65
2023-02-24T14:38:02.422Z,5.95
2023-02-24T14:40:30.102Z,3.40
2023-02-24T14:42:58.489Z,3.00
2023-02-24T14:45:28.776Z,5.22
2023-02-24T14:47:57.490Z,1.83
2023-02-24T14:50:28.824Z,7.47
2023-02-24T14:53:03.371Z,7.45
2023-02-24T14:55:36.951Z,7.38
2023-02-24T14:58:08.134Z,5.05
2023-02-24T15:00:38.762Z,7.93
2023-02-24T15:03:13.961Z,8.80
2023-02-24T15:05:44.453Z,7.97
2023-02-24T15:08:23.467Z,7.28
2023-02-24T15:10:55.040Z,8.23
2023-02-24T15:13:31.118Z,7.63
2023-02-24T15:16:06.838Z,7.65
2023-02-24T15:18:34.368Z,4.07
2023-02-24T15:21:03.148Z,7.03
2023-02-24T15:23:33.398Z,6.60
2023-02-24T15:26:02.545Z,7.72
2023-02-24T15:28:31.933Z,5.78
2023-02-24T15:31:05.242Z,5.38
2023-02-24T15:33:41.486Z,7.45
2023-02-24T15:36:17.187Z,7.03
2023-02-24T15:38:46.399Z,5.90
2023-02-24T15:41:15.423Z,6.53
2023-02-24T15:43:48.003Z,2.95
2023-02-24T15:46:29.192Z,4.35
2023-02-24T15:48:58.242Z,4.40
2023-02-24T15:51:34.935Z,3.88
2023-02-24T15:54:04.813Z,8.10
2023-02-24T15:56:35.830Z,5.90
2023-02-24T15:59:05.234Z,3.20
2023-02-24T16:01:32.951Z,8.70
2023-02-24T16:04:00.853Z,12.07
2023-02-24T16:06:29.590Z,13.15
2023-02-24T16:08:58.596Z,6.05
2023-02-24T16:11:30.072Z,10.15
2023-02-24T16:14:01.642Z,7.03
2023-02-24T16:16:29.473Z,3.05
2023-02-24T16:18:56.982Z,3.67
2023-02-24T16:21:24.454Z,3.10
2023-02-24T16:23:51.926Z,7.38
2023-02-24T16:26:21.414Z,7.15
2023-02-24T16:28:53.915Z,9.50
2023-02-24T16:31:24.274Z,8.57
2023-02-24T16:33:55.433Z,9.20
2023-02-24T16:36:25.260Z,5.00
2023-02-24T16:38:52.988Z,9.32
2023-02-24T16:41:20.511Z,5.38
2023-02-24T16:43:51.071Z,7.10
2023-02-24T16:46:22.836Z,5.70
2023-02-24T16:48:53.798Z,6.20
2023-02-24T16:51:22.618Z,6.93
2023-02-24T16:53:49.986Z,5.78
2023-02-24T16:56:17.984Z,8.23
2023-02-24T16:58:45.693Z,3.58
2023-02-24T17:01:20.295Z,9.02
2023-02-24T17:03:50.689Z,4.50
2023-02-24T17:06:22.103Z,7.88
2023-02-24T17:08:49.897Z,4.97
2023-02-24T17:11:19.962Z,7.57
2023-02-24T17:13:47.661Z,12.60
2023-02-24T17:16:15.137Z,2.13
2023-02-24T17:18:42.528Z,5.93
2023-02-24T17:21:11.500Z,5.88
2023-02-24T17:23:41.212Z,5.38
2023-02-24T17:26:10.766Z,2.75
2023-02-24T17:28:38.205Z,5.15
2023-02-24T17:31:08.328Z,5.15
2023-02-24T17:33:35.850Z,9.15
2023-02-24T17:36:03.306Z,6.60
2023-02-24T17:38:33.999Z,7.28
2023-02-24T17:41:03.205Z,8.18
2023-02-24T17:43:30.613Z,9.70
2023-02-24T17:45:58.133Z,6.63
2023-02-24T17:48:25.572Z,14.95
2023-02-24T17:50:56.839Z,8.02
2023-02-24T17:53:25.800Z,9.02
2023-02-24T17:56:03.582Z,8.55
2023-02-24T17:58:31.510Z,6.35
2023-02-24T18:00:58.967Z,9.95
2023-02-24T18:03:26.459Z,8.63
2023-02-24T18:06:00.059Z,5.53
2023-02-24T18:08:27.994Z,7.88
2023-02-24T18:10:55.363Z,8.50
2023-02-24T18:13:24.089Z,8.35
2023-02-24T18:15:51.609Z,8.13
2023-02-24T18:18:19.131Z,10.20
2023-02-24T18:20:46.643Z,7.93
2023-02-24T18:23:14.865Z,3.17
2023-02-24T18:25:42.516Z,4.32
2023-02-24T18:28:09.936Z,3.60
2023-02-24T18:30:40.736Z,5.03
2023-02-24T18:33:08.273Z,6.72
2023-02-24T18:35:37.723Z,4.85
2023-02-24T18:38:06.511Z,5.78
2023-02-24T18:40:35.341Z,6.55
2023-02-24T18:43:02.982Z,4.95
2023-02-24T18:45:32.484Z,4.30
2023-02-24T18:48:04.910Z,6.32
2023-02-24T18:50:33.853Z,5.07
2023-02-24T18:53:01.470Z,5.05
2023-02-24T18:55:28.972Z,4.88
2023-02-24T18:57:56.398Z,5.50
2023-02-24T19:00:24.155Z,4.72
2023-02-24T19:02:52.947Z,2.83
2023-02-24T19:05:21.786Z,4.55
2023-02-24T19:07:49.156Z,4.07
2023-02-24T19:10:17.074Z,4.85
2023-02-24T19:12:44.457Z,1.45
2023-02-24T19:15:11.835Z,2.63
2023-02-24T19:17:39.389Z,0.93
2023-02-24T19:20:08.495Z,2.00
2023-02-24T19:22:37.293Z,2.20
2023-02-24T19:25:05.487Z,1.95
2023-02-24T19:27:32.919Z,2.50
2023-02-24T19:30:00.302Z,2.22
2023-02-24T19:32:27.831Z,1.85
2023-02-24T19:34:55.296Z,1.50
2023-02-24T19:37:22.685Z,1.50
2023-02-24T19:39:51.431Z,1.83
2023-02-24T19:42:18.850Z,1.90
2023-02-24T19:44:46.214Z,1.42
2023-02-24T19:47:13.575Z,1.05
2023-02-24T19:49:40.945Z,1.58
2023-02-24T19:52:08.372Z,1.35
2023-02-24T19:54:35.808Z,1.85
2023-02-24T19:57:04.637Z,1.60
2023-02-24T19:59:32.029Z,1.38
2023-02-24T20:01:59.438Z,1.40
2023-02-24T20:04:26.880Z,1.15
2023-02-24T20:06:54.309Z,1.80
2023-02-24T20:09:22.215Z,2.03
2023-02-24T20:11:52.390Z,1.58
2023-02-24T20:14:21.409Z,2.58
2023-02-24T20:16:49.232Z,2.05
2023-02-24T20:19:18.388Z,1.20
2023-02-24T20:21:45.928Z,0.80
2023-02-24T20:24:15.699Z,2.10
2023-02-24T20:26:46.787Z,1.77
2023-02-24T20:29:15.388Z,1.90
2023-02-24T20:31:46.206Z,2.53
2023-02-24T20:34:14.372Z,1.63
2023-02-24T20:36:41.942Z,1.70
2023-02-24T20:39:12.170Z,2.03
2023-02-24T20:41:41.824Z,1.77
2023-02-24T20:44:10.400Z,1.83
2023-02-24T20:46:38.539Z,1.52
2023-02-24T20:49:09.223Z,1.27
2023-02-24T20:51:38.172Z,3.10
2023-02-24T20:54:06.376Z,1.42
2023-02-24T20:56:36.296Z,2.75
2023-02-24T20:59:06.572Z,2.90
2023-02-24T21:01:34.911Z,1.95
2023-02-24T21:04:03.468Z,1.80
2023-02-24T21:06:33.257Z,1.67
2023-02-24T21:09:00.943Z,2.08
2023-02-24T21:11:29.973Z,2.08
2023-02-24T21:13:57.527Z,1.25
2023-02-24T21:16:26.741Z,3.63
2023-02-24T21:18:55.768Z,1.90
2023-02-24T21:21:23.369Z,1.50
2023-02-24T21:23:52.283Z,2.97
2023-02-24T21:26:20.489Z,2.20
2023-02-24T21:28:48.070Z,1.60
2023-02-24T21:31:18.983Z,1.33
2023-02-24T21:33:50.928Z,0.90
2023-02-24T21:36:20.741Z,2.10
2023-02-24T21:38:48.349Z,1.80
2023-02-24T21:41:19.205Z,2.00
2023-02-24T21:43:46.634Z,2.25
2023-02-24T21:46:15.467Z,2.33
2023-02-24T21:48:43.041Z,2.42
2023-02-24T21:51:12.622Z,2.45
2023-02-24T21:53:43.381Z,4.15
2023-02-24T21:56:16.238Z,2.65
2023-02-24T22:01:15.213Z,2.40
2023-02-24T22:03:42.655Z,1.30
2023-02-24T22:06:12.777Z,2.60
2023-02-24T22:08:43.321Z,1.95
2023-02-24T22:11:11.868Z,2.95
2023-02-24T22:13:39.352Z,3.45
2023-02-24T22:16:10.923Z,3.10
2023-02-24T22:18:38.338Z,3.60
2023-02-24T22:21:08.040Z,0.70
2023-02-24T22:23:35.862Z,3.55
2023-02-24T22:26:05.485Z,3.10
2023-02-24T22:28:34.173Z,3.35
2023-02-24T22:31:02.491Z,2.80
2023-02-24T22:33:33.223Z,2.03
2023-02-24T22:36:02.973Z,4.10
2023-02-24T22:38:31.710Z,2.25
2023-02-24T22:41:00.112Z,3.40
2023-02-24T22:43:28.629Z,1.67
2023-02-24T22:45:57.820Z,3.47
2023-02-24T22:48:26.687Z,1.48
2023-02-24T22:50:57.358Z,1.50
2023-02-24T22:53:25.719Z,3.67
2023-02-24T22:55:53.185Z,2.53
2023-02-24T22:58:22.301Z,3.97
2023-02-24T23:00:49.725Z,1.42
2023-02-24T23:03:19.542Z,0.98
2023-02-24T23:05:56.287Z,4.38
2023-02-24T23:08:24.781Z,1.27
2023-02-24T23:10:52.939Z,2.35
2023-02-24T23:13:20.785Z,4.65
2023-02-24T23:15:48.291Z,2.03
2023-02-24T23:18:15.869Z,2.63
2023-02-24T23:20:44.661Z,2.83
2023-02-24T23:23:13.398Z,1.60
2023-02-24T23:25:44.825Z,3.97
2023-02-24T23:28:12.194Z,3.03
2023-02-24T23:30:41.650Z,2.60
2023-02-24T23:33:10.296Z,2.75
2023-02-24T23:35:40.471Z,1.88
2023-02-24T23:38:09.222Z,3.55
2023-02-24T23:40:49.602Z,1.88
2023-02-24T23:43:17.654Z,3.58
2023-02-24T23:45:45.201Z,3.75
2023-02-24T23:48:14.770Z,3.78
2023-02-24T23:50:43.466Z,1.30
2023-02-24T23:53:10.921Z,3.50
2023-02-24T23:55:41.325Z,1.98
2023-02-24T23:58:08.834Z,2.78
